Time;durP1;ratioP1;P1;durP2;ratioP2;P2;SDS_P1;SDS_P2;PMS_P1;PMS_P2;Temp;Humidity;BMP_temperature;BMP_pressure;BME280_temperature;BME280_humidity;BME280_pressure;Samples;Min_cycle;Max_cycle;Signal;HPM_P1;HPM_P2
2021/12/10 00:01:02;;;;;;;34.70;23.40;;;;;;;9.28;64.58;100470.80;117321;1185;21843;-60
2021/12/10 00:03:35;;;;;;;35.90;22.50;;;;;;;9.32;64.46;100471.30;117364;1186;22642;-58
2021/12/10 00:06:11;;;;;;;29.80;19.90;;;;;;;9.35;64.52;100465.86;117358;1186;22913;-57
2021/12/10 00:08:41;;;;;;;31.70;20.30;;;;;;;9.38;64.44;100468.65;117354;1185;23894;-61
2021/12/10 00:11:25;;;;;;;34.90;21.40;;;;;;;9.42;64.51;100467.23;117316;1185;21865;-57
2021/12/10 00:13:53;;;;;;;30.60;21.80;;;;;;;9.44;64.52;100467.21;117309;1186;21848;-60
2021/12/10 00:16:22;;;;;;;34.90;21.30;;;;;;;9.48;64.57;100470.68;117377;1186;23003;-60
2021/12/10 00:18:56;;;;;;;32.50;21.60;;;;;;;9.52;64.54;100470.66;117251;1185;23099;-59
2021/12/10 00:21:26;;;;;;;30.60;20.40;;;;;;;9.57;64.50;100467.13;117345;1189;22129;-60
2021/12/10 00:23:56;;;;;;;28.80;19.90;;;;;;;9.60;64.56;100463.60;117284;1186;21860;-58
2021/12/10 00:26:24;;;;;;;28.50;19.10;;;;;;;9.64;64.57;100463.58;117224;1186;21874;-57
2021/12/10 00:29:01;;;;;;;30.70;19.10;;;;;;;9.68;64.53;100459.00;117283;1186;21888;-59
2021/12/10 00:34:11;;;;;;;24.40;16.60;;;;;;;9.76;64.51;100460.14;117405;1183;22959;-57
2021/12/10 00:36:40;;;;;;;27.80;18.40;;;;;;;9.80;64.47;100454.52;117344;1186;21861;-60
2021/12/10 00:39:12;;;;;;;27.00;18.60;;;;;;;9.83;64.46;100457.12;117221;1186;23523;-58
2021/12/10 00:41:40;;;;;;;26.50;18.20;;;;;;;9.87;64.65;100453.77;117340;1185;22834;-57
2021/12/10 00:44:08;;;;;;;28.80;19.00;;;;;;;9.93;64.61;100450.56;117398;1185;22330;-60
2021/12/10 00:46:37;;;;;;;30.50;19.90;;;;;;;9.98;64.48;100447.54;117275;1186;21858;-59
2021/12/10 00:49:05;;;;;;;25.40;18.90;;;;;;;9.99;64.43;100441.21;117303;1188;21858;-60
2021/12/10 00:51:34;;;;;;;29.20;19.40;;;;;;;9.99;64.48;100439.30;117151;1183;21850;-58
2021/12/10 00:54:03;;;;;;;27.70;18.30;;;;;;;9.97;64.51;100437.55;117333;1186;21862;-59
2021/12/10 00:56:32;;;;;;;31.70;21.20;;;;;;;10.01;64.53;100438.05;117308;1186;21876;-59
2021/12/10 00:59:00;;;;;;;36.30;19.20;;;;;;;9.99;64.60;100432.10;117390;1185;21876;-58
2021/12/10 01:01:29;;;;;;;33.40;20.20;;;;;;;10.00;64.62;100420.17;117354;1180;21898;-60
2021/12/10 01:04:08;;;;;;;26.30;19.30;;;;;;;10.01;64.59;100420.70;117357;1186;21977;-58
2021/12/10 01:06:37;;;;;;;30.40;20.40;;;;;;;10.08;64.61;100408.54;117327;1183;23460;-58
2021/12/10 01:09:09;;;;;;;32.90;21.60;;;;;;;10.16;64.53;100404.95;117402;1186;21864;-57
2021/12/10 01:11:47;;;;;;;37.10;22.00;;;;;;;10.18;64.48;100401.06;117290;1186;22895;-57
2021/12/10 01:14:29;;;;;;;34.40;22.10;;;;;;;10.22;64.48;100400.84;117281;1182;23560;-59
2021/12/10 01:26:06;;;;;;;31.90;23.20;;;;;;;10.44;64.51;100393.98;117248;1186;22916;-57
2021/12/10 01:28:12;;;;;;;36.90;23.90;;;;;;;10.42;64.59;100392.24;117264;1186;21848;-59
2021/12/10 01:30:42;;;;;;;40.10;24.60;;;;;;;10.43;64.71;100392.05;117286;1186;21863;-60
2021/12/10 01:33:13;;;;;;;35.00;25.60;;;;;;;10.49;64.56;100389.35;117372;1183;21858;-58
2021/12/10 01:35:44;;;;;;;37.60;23.70;;;;;;;10.55;64.62;100379.46;117314;1186;21950;-57
2021/12/10 01:38:12;;;;;;;33.00;23.90;;;;;;;10.60;64.66;100376.77;117315;1186;21904;-57
2021/12/10 01:40:43;;;;;;;41.50;24.10;;;;;;;10.64;64.65;100367.94;117371;1186;22884;-57
2021/12/10 01:43:22;;;;;;;39.90;22.70;;;;;;;10.67;64.66;100365.09;117313;1186;22967;-57
2021/12/10 01:46:02;;;;;;;33.30;21.40;;;;;;;10.74;64.58;100362.55;117333;1185;21859;-60
2021/12/10 01:48:33;;;;;;;31.00;21.00;;;;;;;10.77;64.62;100355.33;117281;1186;21858;-58
2021/12/10 01:51:03;;;;;;;30.90;20.00;;;;;;;10.82;64.60;100354.20;117252;1186;21866;-59
2021/12/10 01:53:32;;;;;;;31.50;21.40;;;;;;;10.92;64.49;100354.41;117340;1184;21861;-60
2021/12/10 01:56:03;;;;;;;32.00;22.30;;;;;;;10.99;64.55;100355.19;117338;1185;23582;-60
2021/12/10 01:58:32;;;;;;;31.50;22.10;;;;;;;11.06;64.59;100354.37;117343;1185;21865;-57
2021/12/10 02:01:13;;;;;;;39.90;24.30;;;;;;;11.14;64.61;100352.52;117340;1185;22069;-58
2021/12/10 02:03:43;;;;;;;36.20;24.40;;;;;;;11.26;64.52;100348.98;117303;1185;21857;-58
2021/12/10 02:06:13;;;;;;;36.80;23.80;;;;;;;11.37;64.59;100345.65;117361;1185;21845;-58
2021/12/10 02:08:44;;;;;;;37.20;24.70;;;;;;;11.46;64.54;100344.81;117276;1176;22095;-60
2021/12/10 02:11:12;;;;;;;37.30;23.20;;;;;;;11.55;64.70;100341.31;117389;1185;21859;-58
2021/12/10 02:13:41;;;;;;;38.20;24.20;;;;;;;11.63;64.55;100339.45;117302;1183;22010;-58
2021/12/10 02:16:09;;;;;;;35.90;23.40;;;;;;;11.64;64.76;100334.15;117386;1186;21860;-60
2021/12/10 02:18:38;;;;;;;34.80;22.30;;;;;;;11.74;64.79;100332.04;117317;1182;21870;-60
2021/12/10 02:21:10;;;;;;;37.40;24.40;;;;;;;11.81;64.61;100335.61;117345;1186;21904;-59
2021/12/10 02:23:41;;;;;;;34.70;23.00;;;;;;;11.88;64.69;100334.07;117345;1186;22619;-59
2021/12/10 02:26:11;;;;;;;41.90;24.70;;;;;;;11.93;64.56;100335.91;117295;1185;22972;-60
2021/12/10 02:28:40;;;;;;;39.40;24.40;;;;;;;11.95;64.65;100334.98;117386;1186;23634;-58
2021/12/10 02:31:11;;;;;;;36.20;22.90;;;;;;;11.97;64.72;100332.31;117370;1181;21853;-59
2021/12/10 02:33:40;;;;;;;42.90;25.00;;;;;;;12.01;64.51;100332.09;117299;1182;21902;-58
2021/12/10 02:36:11;;;;;;;40.40;23.40;;;;;;;12.05;64.74;100338.02;117347;1179;21863;-58
2021/12/10 02:38:42;;;;;;;37.50;22.80;;;;;;;12.05;64.66;100338.36;117299;1186;22915;-59
2021/12/10 02:41:10;;;;;;;37.70;21.90;;;;;;;12.07;64.67;100335.00;117374;1180;21856;-60
2021/12/10 02:43:38;;;;;;;36.40;23.10;;;;;;;12.03;64.62;100330.65;117359;1188;21870;-59
2021/12/10 02:46:06;;;;;;;36.80;21.70;;;;;;;12.03;64.80;100329.95;117323;1185;21884;-59
2021/12/10 02:48:35;;;;;;;36.60;21.20;;;;;;;12.06;64.68;100326.04;117341;1183;21921;-58
2021/12/10 02:51:04;;;;;;;38.90;22.10;;;;;;;12.09;64.81;100321.94;117384;1183;22645;-58
2021/12/10 02:53:36;;;;;;;37.10;22.70;;;;;;;12.10;64.85;100318.58;117362;1181;22733;-60
2021/12/10 02:56:09;;;;;;;38.70;20.90;;;;;;;12.12;64.71;100321.70;117355;1186;21854;-58
2021/12/10 02:58:38;;;;;;;34.10;20.90;;;;;;;12.13;64.77;100324.48;117324;1185;23465;-60
2021/12/10 03:01:38;;;;;;;29.60;19.20;;;;;;;12.16;64.74;100317.20;117355;1185;21849;-59
2021/12/10 03:04:08;;;;;;;30.20;19.10;;;;;;;12.19;64.79;100318.02;117407;1186;22719;-59
2021/12/10 03:06:44;;;;;;;35.90;20.10;;;;;;;12.20;64.74;100313.80;117399;1185;23537;-59
2021/12/10 03:09:13;;;;;;;30.50;19.40;;;;;;;12.23;64.73;100316.91;117320;1183;24191;-60
2021/12/10 03:11:46;;;;;;;33.70;19.10;;;;;;;12.23;64.75;100317.96;117405;1186;22905;-60
2021/12/10 03:14:20;;;;;;;30.00;19.10;;;;;;;12.24;64.72;100316.17;117387;1185;22843;-58
2021/12/10 03:16:49;;;;;;;40.50;19.90;;;;;;;12.25;64.80;100312.98;117322;1184;21856;-60
2021/12/10 03:19:18;;;;;;;29.80;18.90;;;;;;;12.25;64.77;100310.86;117360;1185;21917;-60
2021/12/10 03:21:46;;;;;;;28.40;19.50;;;;;;;12.25;64.86;100312.48;117347;1186;23700;-59
2021/12/10 03:24:15;;;;;;;36.10;19.00;;;;;;;12.26;64.81;100307.52;117391;1185;21865;-59
2021/12/10 03:26:43;;;;;;;30.90;19.70;;;;;;;12.31;64.66;100306.55;117382;1183;21868;-59
2021/12/10 03:29:12;;;;;;;35.70;19.50;;;;;;;12.36;64.44;100306.27;117348;1188;21858;-58
2021/12/10 03:31:40;;;;;;;31.30;19.50;;;;;;;12.39;64.64;100309.17;117330;1185;21857;-58
2021/12/10 03:34:08;;;;;;;28.70;18.20;;;;;;;12.37;64.58;100310.63;117321;1186;21866;-59
2021/12/10 03:36:45;;;;;;;29.00;18.80;;;;;;;12.36;64.53;100304.33;117349;1186;21867;-60
2021/12/10 03:39:14;;;;;;;34.60;19.70;;;;;;;12.40;64.39;100304.95;117331;1186;21864;-59
2021/12/10 03:41:42;;;;;;;34.60;19.90;;;;;;;12.43;64.54;100307.16;117365;1186;22965;-58
2021/12/10 03:44:11;;;;;;;35.90;20.30;;;;;;;12.43;64.50;100308.73;117304;1183;23560;-59
2021/12/10 03:46:39;;;;;;;38.30;20.60;;;;;;;12.45;64.73;100307.64;117277;1186;21883;-58
2021/12/10 03:49:08;;;;;;;36.30;20.50;;;;;;;12.44;64.61;100303.96;117299;1186;23898;-60
2021/12/10 03:51:36;;;;;;;33.40;19.20;;;;;;;12.44;64.63;100305.38;117333;1186;21865;-60
2021/12/10 03:54:05;;;;;;;29.30;18.40;;;;;;;12.45;64.70;100305.89;117379;1186;22811;-60
2021/12/10 03:56:34;;;;;;;34.10;19.10;;;;;;;12.46;64.68;100299.02;117401;1186;21858;-60
2021/12/10 03:59:06;;;;;;;36.80;18.40;;;;;;;12.46;64.62;100294.25;117377;1185;23465;-58
2021/12/10 04:01:36;;;;;;;30.60;18.30;;;;;;;12.45;64.76;100293.40;117436;1184;21857;-58
2021/12/10 04:04:07;;;;;;;35.30;19.10;;;;;;;12.48;64.81;100288.40;117372;1182;23432;-60
2021/12/10 04:06:35;;;;;;;30.50;18.60;;;;;;;12.49;64.92;100290.14;117336;1185;21857;-59
2021/12/10 04:09:03;;;;;;;27.80;17.60;;;;;;;12.49;64.69;100285.92;117319;1186;22895;-59
2021/12/10 04:11:32;;;;;;;27.30;17.30;;;;;;;12.49;64.74;100290.50;117318;1182;21860;-58
2021/12/10 04:14:00;;;;;;;31.10;17.50;;;;;;;12.49;64.72;100288.73;117381;1188;21895;-59
2021/12/10 04:16:39;;;;;;;35.70;18.20;;;;;;;12.48;64.83;100287.16;117297;1182;21897;-60
2021/12/10 04:19:09;;;;;;;29.00;17.20;;;;;;;12.48;64.75;100288.74;117389;1184;21862;-60
2021/12/10 04:21:40;;;;;;;29.40;18.00;;;;;;;12.47;64.82;100284.37;117371;1185;21957;-58
2021/12/10 04:24:11;;;;;;;33.80;16.00;;;;;;;12.44;64.83;100283.39;117346;1186;21871;-60
2021/12/10 04:26:40;;;;;;;30.60;17.00;;;;;;;12.43;64.93;100278.67;117428;1184;21857;-59
2021/12/10 04:29:08;;;;;;;31.40;17.20;;;;;;;12.43;65.02;100278.30;117294;1185;21858;-58
2021/12/10 04:31:37;;;;;;;26.80;16.00;;;;;;;12.47;64.95;100278.57;117393;1185;21907;-59
2021/12/10 04:34:05;;;;;;;33.10;17.60;;;;;;;12.48;64.87;100279.95;117450;1184;24130;-59
2021/12/10 04:36:34;;;;;;;25.40;16.10;;;;;;;12.48;64.77;100280.84;117399;1186;21857;-60
2021/12/10 04:39:03;;;;;;;28.30;16.00;;;;;;;12.49;64.76;100285.56;117382;1186;22906;-58
2021/12/10 04:41:31;;;;;;;26.50;17.50;;;;;;;12.50;64.81;100280.27;117311;1182;24223;-58
2021/12/10 04:44:00;;;;;;;30.60;16.90;;;;;;;12.54;64.77;100277.02;117332;1182;21867;-58
2021/12/10 04:46:28;;;;;;;26.40;16.70;;;;;;;12.55;64.77;100272.23;117327;1185;23012;-58
2021/12/10 04:48:59;;;;;;;34.30;16.00;;;;;;;12.57;64.86;100269.72;117343;1184;21860;-59
2021/12/10 04:51:30;;;;;;;23.70;15.90;;;;;;;12.58;64.63;100273.77;117389;1181;21858;-60
2021/12/10 04:53:58;;;;;;;;;;;;;;;12.58;64.64;100273.93;117356;1186;22515;-60
2021/12/10 04:56:26;;;;;;;24.70;15.70;;;;;;;12.57;64.92;100272.02;117359;1185;22911;-60
2021/12/10 04:58:55;;;;;;;24.40;13.90;;;;;;;12.57;64.72;100266.75;117389;1185;21871;-62
2021/12/10 05:01:23;;;;;;;31.50;15.00;;;;;;;12.58;65.03;100274.45;117343;1185;24186;-61
2021/12/10 05:03:52;;;;;;;26.50;14.50;;;;;;;12.60;64.82;100276.00;117372;1183;21884;-59
2021/12/10 05:06:20;;;;;;;27.80;16.20;;;;;;;12.60;64.74;100276.34;117358;1186;23263;-61
2021/12/10 05:08:48;;;;;;;27.60;14.50;;;;;;;12.61;64.88;100272.98;117339;1185;21967;-62
2021/12/10 05:11:17;;;;;;;32.30;15.00;;;;;;;12.61;64.81;100269.98;117410;1186;22916;-62
2021/12/10 05:13:46;;;;;;;28.10;15.30;;;;;;;12.61;64.97;100266.65;117327;1181;21859;-63
2021/12/10 05:16:30;;;;;;;25.80;13.10;;;;;;;12.62;64.84;100270.33;117311;1183;21871;-61
2021/12/10 05:19:00;;;;;;;25.80;14.40;;;;;;;12.62;64.84;100269.60;117452;1185;23462;-62
2021/12/10 05:21:30;;;;;;;27.90;13.90;;;;;;;12.65;64.65;100270.42;117342;1185;21881;-61
2021/12/10 05:23:58;;;;;;;26.80;14.70;;;;;;;12.66;64.80;100267.60;117319;1186;22947;-61
2021/12/10 05:26:27;;;;;;;25.10;15.20;;;;;;;12.66;64.83;100268.30;117363;1186;22976;-61
2021/12/10 05:28:55;;;;;;;28.50;13.50;;;;;;;12.66;64.84;100272.00;117337;1186;21856;-60
2021/12/10 05:31:24;;;;;;;34.60;15.10;;;;;;;12.68;64.82;100279.00;117316;1185;21843;-60
2021/12/10 05:33:53;;;;;;;25.80;13.10;;;;;;;12.65;65.05;100278.00;117375;1189;21883;-63
2021/12/10 05:36:21;;;;;;;28.10;14.60;;;;;;;12.65;64.90;100280.46;117296;1186;22038;-62
2021/12/10 05:38:55;;;;;;;32.70;13.80;;;;;;;12.67;65.07;100276.74;117300;1183;21861;-61
2021/12/10 05:41:23;;;;;;;29.60;14.00;;;;;;;12.67;64.95;100280.42;117314;1182;21859;-61
2021/12/10 05:43:51;;;;;;;23.80;13.40;;;;;;;12.67;64.91;100282.53;117350;1186;21869;-62
2021/12/10 05:46:19;;;;;;;27.30;13.10;;;;;;;12.68;64.96;100283.21;117324;1186;21869;-60
2021/12/10 05:48:48;;;;;;;21.40;12.30;;;;;;;12.68;65.30;100278.99;117401;1185;21946;-63
2021/12/10 05:51:16;;;;;;;31.70;14.40;;;;;;;12.68;65.32;100278.98;117312;1185;21876;-62
2021/12/10 05:53:44;;;;;;;22.70;12.50;;;;;;;12.73;65.31;100276.95;117356;1185;21867;-62
2021/12/10 05:56:13;;;;;;;22.40;12.20;;;;;;;12.76;65.17;100277.93;117365;1186;22169;-60
2021/12/10 05:58:41;;;;;;;27.20;13.10;;;;;;;12.79;65.00;100281.73;117332;1182;21861;-61
2021/12/10 06:01:16;;;;;;;23.60;13.20;;;;;;;12.83;65.09;100279.35;117101;1187;21856;-61
2021/12/10 06:03:51;;;;;;;26.40;12.10;;;;;;;12.86;65.07;100281.58;117347;1186;23522;-62
2021/12/10 06:06:28;;;;;;;28.50;12.80;;;;;;;12.85;65.17;100280.89;117362;1186;21861;-60
2021/12/10 06:08:57;;;;;;;33.50;14.30;;;;;;;12.86;65.14;100276.63;117339;1185;21864;-61
2021/12/10 06:11:26;;;;;;;25.70;12.90;;;;;;;12.89;65.18;100274.64;117371;1186;23563;-61
2021/12/10 06:13:54;;;;;;;22.50;12.10;;;;;;;12.91;65.29;100275.30;117382;1182;21860;-60
2021/12/10 06:16:25;;;;;;;;;;;;;;;12.93;65.09;100276.66;117330;1184;21851;-60
2021/12/10 06:18:53;;;;;;;22.30;11.10;;;;;;;12.95;65.24;100274.52;117312;1186;21902;-61
2021/12/10 06:21:21;;;;;;;18.70;11.30;;;;;;;12.98;65.33;100274.79;117276;1185;22812;-61
2021/12/10 06:23:49;;;;;;;24.30;12.20;;;;;;;13.01;65.33;100271.20;117350;1182;23451;-62
2021/12/10 06:26:17;;;;;;;21.00;11.30;;;;;;;13.05;65.22;100271.63;117348;1186;23522;-61
2021/12/10 06:28:46;;;;;;;22.50;11.10;;;;;;;13.10;65.37;100271.50;117419;1186;23433;-62
2021/12/10 06:31:16;;;;;;;23.70;11.20;;;;;;;13.12;65.22;100273.92;117371;1185;23471;-62
2021/12/10 06:33:45;;;;;;;23.60;10.60;;;;;;;13.18;65.12;100276.05;117364;1182;22638;-62
2021/12/10 06:36:13;;;;;;;21.40;10.60;;;;;;;13.20;65.26;100274.06;117384;1183;23430;-61
2021/12/10 06:38:41;;;;;;;22.00;10.60;;;;;;;13.21;65.09;100272.82;117449;1185;21887;-60
2021/12/10 06:41:10;;;;;;;22.60;11.00;;;;;;;13.21;65.22;100272.80;117393;1185;22037;-60
2021/12/10 06:43:39;;;;;;;23.30;10.60;;;;;;;13.22;65.21;100270.85;117404;1183;21868;-61
2021/12/10 06:46:07;;;;;;;26.80;11.00;;;;;;;13.21;65.23;100274.59;117330;1183;21854;-61
2021/12/10 06:48:36;;;;;;;23.00;11.40;;;;;;;13.21;65.18;100270.70;117379;1186;23720;-61
2021/12/10 06:51:09;;;;;;;21.90;10.50;;;;;;;13.24;65.14;100272.39;117322;1182;22912;-61
2021/12/10 06:53:39;;;;;;;20.00;10.50;;;;;;;13.24;65.12;100270.45;117288;1184;24156;-61
2021/12/10 06:56:08;;;;;;;23.80;10.40;;;;;;;13.27;65.29;100266.33;117312;1184;21858;-61
2021/12/10 06:58:36;;;;;;;24.30;10.00;;;;;;;13.28;65.06;100263.64;117298;1184;24379;-61
2021/12/10 07:01:09;;;;;;;23.70;10.50;;;;;;;13.27;65.29;100267.91;117373;1184;23599;-61
2021/12/10 07:03:38;;;;;;;19.80;9.30;;;;;;;13.26;65.09;100267.92;117334;1185;23460;-60
2021/12/10 07:06:06;;;;;;;20.50;10.20;;;;;;;13.26;65.30;100265.64;117351;1185;21858;-60
2021/12/10 07:08:37;;;;;;;25.60;11.00;;;;;;;13.24;65.22;100263.57;117421;1185;21855;-59
2021/12/10 07:11:06;;;;;;;20.50;9.90;;;;;;;13.28;65.30;100268.05;117322;1185;21857;-60
2021/12/10 07:13:35;;;;;;;21.70;11.00;;;;;;;13.28;65.53;100269.45;117314;1184;21857;-61
2021/12/10 07:16:04;;;;;;;23.70;10.40;;;;;;;13.29;65.45;100268.58;117130;1184;21861;-60
2021/12/10 07:18:33;;;;;;;21.20;10.90;;;;;;;13.31;65.50;100266.93;117345;1186;21861;-60
2021/12/10 07:21:01;;;;;;;21.40;9.60;;;;;;;13.36;65.59;100259.92;117277;1184;23567;-60
2021/12/10 07:23:30;;;;;;;25.10;10.70;;;;;;;13.37;65.51;100261.30;117335;1186;22960;-61
2021/12/10 07:25:58;;;;;;;17.00;8.80;;;;;;;13.39;65.78;100264.09;117361;1186;23471;-61
2021/12/10 07:28:26;;;;;;;21.30;9.60;;;;;;;13.43;65.65;100264.02;117371;1184;23465;-60
2021/12/10 07:30:55;;;;;;;22.50;10.50;;;;;;;13.47;65.78;100266.21;117188;1186;21859;-60
2021/12/10 07:33:23;;;;;;;16.00;7.90;;;;;;;13.55;65.62;100267.94;117347;1184;23436;-59
2021/12/10 07:35:52;;;;;;;21.50;9.20;;;;;;;13.61;65.55;100263.37;117274;1184;24179;-59
2021/12/10 07:38:21;;;;;;;21.10;8.60;;;;;;;13.65;65.64;100265.20;117322;1186;23449;-60
2021/12/10 07:40:49;;;;;;;19.50;8.70;;;;;;;13.66;65.49;100265.88;117369;1186;21898;-62
2021/12/10 07:43:21;;;;;;;15.30;7.70;;;;;;;13.71;65.62;100269.80;117359;1186;23475;-62
2021/12/10 07:45:49;;;;;;;19.60;9.40;;;;;;;13.79;65.45;100268.18;117405;1185;22836;-60
2021/12/10 07:48:19;;;;;;;21.50;8.50;;;;;;;13.79;65.58;100265.69;117362;1182;21858;-62
2021/12/10 07:50:58;;;;;;;25.90;10.30;;;;;;;13.80;65.63;100264.45;117385;1180;22178;-61
2021/12/10 07:53:28;;;;;;;20.70;8.70;;;;;;;13.86;65.54;100260.39;117325;1184;23474;-60
2021/12/10 07:55:57;;;;;;;25.70;9.70;;;;;;;13.92;65.42;100259.17;117368;1181;22895;-61
2021/12/10 07:58:25;;;;;;;19.50;8.50;;;;;;;13.92;65.42;100261.83;117340;1186;23018;-61
2021/12/10 08:00:54;;;;;;;24.20;8.80;;;;;;;13.91;65.61;100262.90;117356;1186;23436;-60
2021/12/10 08:03:22;;;;;;;15.70;7.40;;;;;;;13.90;65.67;100261.86;117356;1184;23533;-60
2021/12/10 08:05:50;;;;;;;21.40;7.80;;;;;;;13.93;65.63;100259.15;117287;1186;21864;-61
2021/12/10 08:08:19;;;;;;;24.40;8.50;;;;;;;13.99;65.58;100254.04;117286;1185;21867;-61
2021/12/10 08:10:49;;;;;;;20.50;7.70;;;;;;;14.08;65.48;100253.79;117520;1186;21867;-63
2021/12/10 08:13:18;;;;;;;18.60;7.40;;;;;;;14.12;65.59;100252.80;117335;1185;21858;-61
2021/12/10 08:15:46;;;;;;;18.40;8.10;;;;;;;14.13;65.60;100254.17;117399;1185;21860;-61
2021/12/10 08:18:15;;;;;;;19.40;8.00;;;;;;;14.19;65.51;100251.17;117374;1185;23472;-61
2021/12/10 08:20:43;;;;;;;19.00;8.10;;;;;;;14.19;65.64;100249.23;117370;1184;21865;-61
2021/12/10 08:23:11;;;;;;;20.00;8.10;;;;;;;14.21;65.64;100245.83;117338;1182;24316;-60
2021/12/10 08:25:40;;;;;;;19.90;7.80;;;;;;;14.24;65.72;100246.08;117394;1185;21903;-61
2021/12/10 08:28:08;;;;;;;18.90;9.20;;;;;;;14.25;65.61;100243.24;117338;1185;22915;-61
2021/12/10 08:30:37;;;;;;;16.40;7.70;;;;;;;14.26;65.66;100240.73;117396;1185;23426;-59
2021/12/10 08:33:12;;;;;;;21.70;8.40;;;;;;;14.27;65.65;100236.82;117363;1184;21858;-59
2021/12/10 08:35:42;;;;;;;22.30;8.30;;;;;;;14.29;65.85;100240.45;117373;1183;22651;-60
2021/12/10 08:38:11;;;;;;;15.40;7.60;;;;;;;14.33;65.74;100240.52;117359;1184;21858;-60
2021/12/10 08:40:43;;;;;;;18.80;8.10;;;;;;;14.42;65.68;100240.95;117341;1183;21862;-60
2021/12/10 08:43:11;;;;;;;20.60;8.60;;;;;;;14.50;65.47;100238.95;117393;1181;21987;-60
2021/12/10 08:45:40;;;;;;;16.30;7.40;;;;;;;14.55;65.49;100233.85;117375;1186;21884;-61
2021/12/10 08:48:08;;;;;;;20.00;8.40;;;;;;;14.60;65.44;100235.64;117390;1182;23435;-60
2021/12/10 08:50:37;;;;;;;21.80;7.80;;;;;;;14.63;65.43;100231.66;117340;1188;21866;-62
2021/12/10 08:53:08;;;;;;;22.60;7.60;;;;;;;14.68;65.32;100227.29;117373;1185;22628;-61
2021/12/10 08:55:36;;;;;;;;;;;;;;;14.65;65.34;100235.13;117400;1184;22306;-61
2021/12/10 08:58:05;;;;;;;17.80;7.70;;;;;;;14.62;65.34;100227.44;117308;1185;23573;-62
2021/12/10 09:00:34;;;;;;;14.90;6.60;;;;;;;14.58;65.46;100227.94;117379;1184;21847;-61
2021/12/10 09:03:08;;;;;;;20.40;7.70;;;;;;;14.57;65.48;100226.21;117408;1176;21862;-60
2021/12/10 09:05:38;;;;;;;20.90;7.60;;;;;;;14.57;65.44;100228.68;117375;1186;21903;-61
2021/12/10 09:08:06;;;;;;;22.40;7.90;;;;;;;14.57;65.48;100224.27;117280;1185;21861;-63
2021/12/10 09:10:37;;;;;;;18.70;7.80;;;;;;;14.58;65.44;100221.55;117354;1181;21988;-60
2021/12/10 09:13:10;;;;;;;18.80;7.40;;;;;;;14.61;65.45;100216.35;117332;1183;21888;-61
2021/12/10 09:15:45;;;;;;;17.80;7.20;;;;;;;14.65;65.50;100216.98;117362;1186;22922;-60
2021/12/10 09:18:13;;;;;;;19.60;8.80;;;;;;;14.69;65.60;100209.42;117318;1185;22180;-60
2021/12/10 09:20:45;;;;;;;21.00;8.30;;;;;;;14.71;65.60;100206.55;117393;1185;21903;-61
2021/12/10 09:23:15;;;;;;;16.60;8.00;;;;;;;14.83;65.50;100202.10;117461;1184;21864;-60
2021/12/10 09:25:44;;;;;;;13.90;7.20;;;;;;;14.76;65.55;100202.69;117355;1184;21856;-61
2021/12/10 09:28:13;;;;;;;18.40;7.80;;;;;;;14.76;65.61;100209.23;117366;1182;21859;-59
2021/12/10 09:30:44;;;;;;;17.50;7.90;;;;;;;14.72;65.48;100210.58;117394;1185;21856;-61
2021/12/10 09:33:12;;;;;;;18.20;8.00;;;;;;;14.73;65.47;100205.80;117334;1186;23529;-60
2021/12/10 09:35:41;;;;;;;19.80;7.60;;;;;;;14.74;65.59;100201.86;117402;1183;21861;-60
2021/12/10 09:38:09;;;;;;;18.80;7.50;;;;;;;14.73;65.53;100201.73;117400;1183;23331;-60
2021/12/10 09:40:41;;;;;;;16.20;7.90;;;;;;;14.78;65.44;100194.31;117312;1184;21875;-60
2021/12/10 09:43:10;;;;;;;15.40;8.10;;;;;;;14.79;65.28;100185.27;117310;1186;21902;-61
2021/12/10 09:45:40;;;;;;;17.10;7.90;;;;;;;14.79;65.32;100186.16;117292;1186;23573;-61
2021/12/10 09:48:09;;;;;;;25.60;9.10;;;;;;;14.81;65.22;100183.25;117372;1185;21940;-62
2021/12/10 09:50:44;;;;;;;22.60;9.90;;;;;;;14.81;65.24;100186.97;117388;1184;22951;-60
2021/12/10 09:53:12;;;;;;;16.40;7.80;;;;;;;14.79;65.31;100185.98;117409;1186;23644;-62
2021/12/10 09:55:46;;;;;;;20.40;10.00;;;;;;;14.78;65.36;100183.20;117342;1186;21861;-60
2021/12/10 09:58:15;;;;;;;20.00;9.20;;;;;;;14.81;65.43;100188.05;117383;1185;23443;-60
2021/12/10 10:01:03;;;;;;;22.00;8.60;;;;;;;14.82;65.39;100186.77;117377;1185;21874;-60
2021/12/10 10:03:33;;;;;;;21.00;7.70;;;;;;;14.84;65.41;100188.28;117394;1184;22612;-61
2021/12/10 10:06:02;;;;;;;24.50;8.20;;;;;;;14.81;65.44;100190.14;117387;1183;22948;-60
2021/12/10 10:08:32;;;;;;;17.30;7.70;;;;;;;14.80;65.51;100185.56;117349;1186;21859;-60
2021/12/10 10:11:09;;;;;;;20.80;8.90;;;;;;;14.81;65.57;100181.84;117335;1182;23465;-60
2021/12/10 10:13:50;;;;;;;18.20;7.80;;;;;;;14.88;65.41;100178.80;117455;1186;22017;-60
2021/12/10 10:16:20;;;;;;;17.70;7.10;;;;;;;14.92;65.47;100175.30;117311;1183;22922;-62
2021/12/10 10:18:49;;;;;;;21.10;8.00;;;;;;;14.93;65.42;100173.16;117379;1183;22913;-60
2021/12/10 10:21:22;;;;;;;17.80;7.50;;;;;;;14.93;65.48;100167.50;117318;1186;22905;-64
2021/12/10 10:23:51;;;;;;;12.80;7.00;;;;;;;14.94;65.47;100163.77;117334;1184;22632;-61
2021/12/10 10:26:22;;;;;;;22.40;7.60;;;;;;;14.97;65.50;100161.55;117308;1182;23435;-61
2021/12/10 10:28:52;;;;;;;17.50;6.80;;;;;;;14.92;65.60;100165.41;117351;1186;22931;-60
2021/12/10 10:31:22;;;;;;;20.20;7.70;;;;;;;14.92;65.72;100162.61;117348;1185;23466;-59
2021/12/10 10:33:53;;;;;;;15.10;7.10;;;;;;;14.95;65.72;100161.62;117296;1186;21867;-59
2021/12/10 10:36:23;;;;;;;22.80;9.50;;;;;;;14.98;65.73;100160.63;117283;1186;21861;-59
2021/12/10 10:38:55;;;;;;;14.70;7.20;;;;;;;15.01;65.74;100158.02;117350;1185;23452;-61
2021/12/10 10:41:25;;;;;;;17.80;7.50;;;;;;;15.02;65.72;100157.11;117243;1184;21861;-61
2021/12/10 10:43:54;;;;;;;19.10;7.80;;;;;;;15.00;65.65;100154.02;117285;1184;23496;-61
2021/12/10 10:46:22;;;;;;;17.40;7.40;;;;;;;15.02;65.63;100155.18;117294;1186;22906;-61
2021/12/10 10:48:50;;;;;;;16.60;7.80;;;;;;;15.03;65.65;100150.39;117330;1185;21851;-62
2021/12/10 10:51:26;;;;;;;14.10;6.30;;;;;;;15.00;65.61;100152.06;117357;1184;21873;-60
2021/12/10 10:53:58;;;;;;;22.60;6.80;;;;;;;15.01;65.60;100150.65;117317;1184;21881;-60
2021/12/10 10:56:32;;;;;;;16.00;6.80;;;;;;;15.01;65.55;100152.39;117337;1183;21910;-61
2021/12/10 10:59:09;;;;;;;16.10;8.00;;;;;;;15.01;65.59;100154.50;117380;1186;22913;-61
2021/12/10 11:01:46;;;;;;;18.00;6.90;;;;;;;15.01;65.41;100149.18;117296;1185;23435;-60
2021/12/10 11:04:28;;;;;;;17.50;7.50;;;;;;;15.02;65.43;100149.19;117360;1184;21989;-62
2021/12/10 11:07:18;;;;;;;17.20;7.50;;;;;;;14.99;65.65;100147.15;117332;1185;21908;-61
2021/12/10 11:09:53;;;;;;;16.30;6.70;;;;;;;15.01;65.66;100147.63;117393;1186;22661;-60
2021/12/10 11:12:29;;;;;;;15.50;7.10;;;;;;;15.03;65.66;100146.83;117495;1180;22931;-62
2021/12/10 11:14:59;;;;;;;18.00;6.70;;;;;;;15.12;65.67;100148.11;117308;1185;21841;-60
2021/12/10 11:17:44;;;;;;;20.30;6.80;;;;;;;15.24;65.65;100144.72;117290;1186;22776;-61
2021/12/10 11:20:24;;;;;;;18.60;7.20;;;;;;;15.27;65.46;100148.12;117323;1184;21874;-60
2021/12/10 11:22:56;;;;;;;14.80;6.20;;;;;;;15.30;65.38;100147.15;117585;1184;22655;-61
2021/12/10 11:25:33;;;;;;;17.00;6.40;;;;;;;15.33;65.33;100147.41;117347;1182;21860;-60
2021/12/10 11:28:13;;;;;;;18.00;7.00;;;;;;;15.36;65.41;100149.77;117260;1184;23676;-62
2021/12/10 11:30:44;;;;;;;11.90;5.40;;;;;;;15.39;65.43;100152.30;117226;1186;21873;-62
2021/12/10 11:33:21;;;;;;;23.80;7.20;;;;;;;15.40;65.39;100147.15;117305;1184;24260;-61